Honaunau, HI

7:49 PM HST on August 28, 2014 (GMT -1000)
Captain Cook | Change Station
CLOSE
Current Station
Personal Weather Station
Location: Captain Cook, HI
Elevation: 915 ft
Nearby Weather Stations
Active Advisory: High Surf Advisory

Elev 915 ft 19.31 °N, 155.88 °W | Updated 19 minutes ago

Overcast
Overcast
72.5 °F
Feels Like 73 °F
N
2.0
Wind Variable Wind from South
Gusts 4.0 mph

Today
High -- | Low -- °F
--% Chance of Precip.
Yesterday
High -- | Low -- °F
Precip. -- in
6:07 AM 6:41 PM
Waxing Crescent, 12% visible
Pressure 29.83 in
Visibility 10.0 miles
Clouds Mostly Cloudy 6000 ft
Mostly Cloudy 7500 ft
Overcast 8500 ft
Heat Index 73 °F
Dew Point 66 °F
Humidity 79%
Rainfall 0.00 in
Snow Depth Not available.
UV 0.0 out of 12
Pollen Not available.
Air Quality Not available.
Flu Activity Not available.
METAR PHKO 290453Z 16010KT 10SM BKN060 BKN075 OVC085 28/19 A2983 RMK AO2 SLP102 T02830189

More Conditions Fewer Conditions

Pressure 29.83 in
Visibility 10.0 miles
Clouds Mostly Cloudy 6000 ft
Mostly Cloudy 7500 ft
Overcast 8500 ft
Heat Index 73 °F
Dew Point 66 °F
Humidity 79%
Rainfall 0.00 in
Snow Depth Not available.
UV 0.0 out of 12
Pollen Not available.
Air Quality Not available.
Flu Activity Not available.
METAR PHKO 290453Z 16010KT 10SM BKN060 BKN075 OVC085 28/19 A2983 RMK AO2 SLP102 T02830189

More Conditions Fewer Conditions

10-Day Weather Forecast

Almanac

Astronomy

Aug. 28, 2014 Rise Set
Actual Time 6:07 AM HST 6:41 PM HST
Civil Twilight 5:45 AM HST 7:03 PM HST
Nautical Twilight 5:18 AM HST 7:30 PM HST
Astronomical Twilight 4:52 AM HST 7:56 PM HST
Moon 8:40 AM HST (8/28) 8:44 PM HST (8/28)
Length of Visible Light 13h 18m
Length of Day
12h 34m
Tomorrow will be 1m 3s shorter.
Waxing Crescent, 12% of the Moon is Illuminated
Aug 29
Waxing Crescent
Sep 2
First Quarter
Sep 8
Full
Sep 15
Last Quarter
Sep 24
New

Yesterday's Extremes

State Highs State Lows

Community

WunderPhotos

Upload Photos

1,748,197 photos uploaded!

Nearby

Snow Depth

Station Depth Elevation
No new snow has been reported.

Earthquake Activity

City Distance Mag. Time & Date
No recent earthquake activity has been reported nearby.
Minimum magnitude displayed is 2.5.

Coastal Water Temperatures

Place Temperature
No Stations Reporting

Nearby Weather Stations